Аэропорт: Запорожье. Запорожье

ICAO: UKDE

METAR:
2021-07-28 13:30:00
UKDE 281330Z 17004MPS 130V210 CAVOK 32/14 Q1015 R20/090070 NOSIG
METAR:
2021-07-28 11:08:00
TAF UKDE 281108Z 2812/2821 20005MPS 9999 SCT030 TX33/2812Z TN24/2821Z PROB40 TEMPO 2815/2821 VRB08G13MPS 3100 -TSRA BKN020CB